createdAt,value
2017-01-03T00:00:17.674Z,0
2017-01-03T00:01:17.688Z,0
2017-01-03T00:02:17.700Z,0
2017-01-03T00:04:32.652Z,0
2017-01-03T00:05:17.755Z,0
2017-01-03T00:06:17.762Z,0
2017-01-03T00:07:17.779Z,0
2017-01-03T00:08:32.713Z,0
2017-01-03T00:09:17.807Z,0
2017-01-03T00:10:17.822Z,0
2017-01-03T00:11:17.835Z,0
2017-01-03T00:12:17.859Z,0
2017-01-03T00:13:17.868Z,0
2017-01-03T00:14:17.884Z,0
2017-01-03T00:15:17.898Z,0
2017-01-03T00:16:32.834Z,0
2017-01-03T00:17:17.928Z,0
2017-01-03T00:18:17.943Z,0
2017-01-03T00:20:17.976Z,0
2017-01-03T00:21:17.988Z,0
2017-01-03T00:22:18.000Z,0
2017-01-03T00:23:18.016Z,0
2017-01-03T00:24:32.952Z,0
2017-01-03T00:25:18.047Z,0
2017-01-03T00:26:18.067Z,0
2017-01-03T00:27:18.110Z,0
2017-01-03T00:28:33.013Z,0
2017-01-03T00:29:18.108Z,0
2017-01-03T00:30:18.123Z,0
2017-01-03T00:31:33.056Z,0
2017-01-03T00:32:18.154Z,0
2017-01-03T00:33:18.167Z,0
2017-01-03T00:34:18.187Z,0
2017-01-03T00:35:33.117Z,0
2017-01-03T00:36:18.212Z,0
2017-01-03T00:37:18.229Z,0
2017-01-03T00:38:18.278Z,0
2017-01-03T00:39:18.261Z,0
2017-01-03T00:40:33.190Z,0
2017-01-03T00:41:18.288Z,0
2017-01-03T00:42:18.305Z,0
2017-01-03T00:43:18.316Z,0
2017-01-03T00:44:18.336Z,0
2017-01-03T00:45:18.350Z,0
2017-01-03T00:46:33.281Z,0
2017-01-03T00:47:18.379Z,0
2017-01-03T00:48:18.394Z,0
2017-01-03T00:49:18.406Z,0
2017-01-03T00:50:33.344Z,0
2017-01-03T00:51:18.772Z,0
2017-01-03T00:52:33.373Z,0
2017-01-03T00:53:18.469Z,0
2017-01-03T00:54:18.485Z,0
2017-01-03T00:55:18.503Z,0
2017-01-03T00:56:33.435Z,0
2017-01-03T00:57:18.528Z,0
2017-01-03T00:58:18.547Z,0
2017-01-03T00:59:18.561Z,0
2017-01-03T01:00:18.574Z,0
2017-01-03T01:01:33.508Z,0
2017-01-03T01:02:18.608Z,0
2017-01-03T01:03:18.619Z,0
2017-01-03T01:04:18.637Z,0
2017-01-03T01:05:18.649Z,0
2017-01-03T01:07:18.679Z,0
2017-01-03T01:08:33.612Z,0
2017-01-03T01:09:18.718Z,0
2017-01-03T01:10:18.728Z,0
2017-01-03T01:11:33.659Z,0
2017-01-03T01:12:18.756Z,0
2017-01-03T01:13:18.771Z,0
2017-01-03T01:14:18.788Z,0
2017-01-03T01:15:18.806Z,0
2017-01-03T01:16:33.736Z,0
2017-01-03T01:17:18.834Z,0
2017-01-03T01:18:18.849Z,0
2017-01-03T01:19:18.866Z,0
2017-01-03T01:20:18.904Z,0
2017-01-03T01:21:18.890Z,0
2017-01-03T01:23:19.125Z,0
2017-01-03T01:25:18.954Z,0
2017-01-03T01:26:18.970Z,0
2017-01-03T01:27:18.985Z,0
2017-01-03T01:28:19.000Z,0
2017-01-03T01:29:33.937Z,0
2017-01-03T01:30:19.029Z,0
2017-01-03T01:31:19.042Z,0
2017-01-03T01:32:33.979Z,0
2017-01-03T01:33:19.079Z,0
2017-01-03T01:34:34.007Z,0
2017-01-03T01:35:34.021Z,0
2017-01-03T01:36:19.121Z,0
2017-01-03T01:37:19.134Z,0
2017-01-03T01:38:34.069Z,0
2017-01-03T01:39:19.163Z,0
2017-01-03T01:40:19.180Z,0
2017-01-03T01:41:19.197Z,0
2017-01-03T01:42:19.209Z,0
2017-01-03T01:43:34.156Z,0
2017-01-03T01:44:19.243Z,0
2017-01-03T01:45:19.281Z,0
2017-01-03T01:46:19.271Z,0
2017-01-03T01:47:19.286Z,0
2017-01-03T01:48:19.303Z,0
2017-01-03T01:49:19.320Z,0
2017-01-03T01:50:19.332Z,0
2017-01-03T01:51:19.347Z,0
2017-01-03T01:52:19.363Z,0
2017-01-03T01:53:19.379Z,0
2017-01-03T01:54:19.392Z,0
2017-01-03T01:55:34.325Z,0
2017-01-03T01:56:19.431Z,0
2017-01-03T01:57:19.439Z,0
2017-01-03T01:58:19.453Z,0
2017-01-03T01:59:34.392Z,0
2017-01-03T02:00:19.484Z,0
2017-01-03T02:01:19.500Z,0
2017-01-03T02:02:19.514Z,0
2017-01-03T02:03:19.531Z,0
2017-01-03T02:04:34.465Z,0
2017-01-03T02:05:34.480Z,0
2017-01-03T02:06:19.583Z,0
2017-01-03T02:07:19.592Z,0
2017-01-03T02:08:19.607Z,0
2017-01-03T02:09:19.628Z,0
2017-01-03T02:10:19.695Z,0
2017-01-03T02:11:34.570Z,0
2017-01-03T02:12:19.673Z,0
2017-01-03T02:13:19.687Z,0
2017-01-03T02:14:19.699Z,0
2017-01-03T02:15:34.634Z,0
2017-01-03T02:16:19.730Z,0
2017-01-03T02:17:19.747Z,0
2017-01-03T02:18:19.764Z,0
2017-01-03T02:19:19.775Z,0
2017-01-03T02:20:19.794Z,0
2017-01-03T02:22:19.825Z,0
2017-01-03T02:23:19.839Z,0
2017-01-03T02:24:19.854Z,0
2017-01-03T02:25:19.869Z,0
2017-01-03T02:26:19.887Z,0
2017-01-03T02:27:19.901Z,0
2017-01-03T02:28:19.914Z,0
2017-01-03T02:29:19.930Z,0
2017-01-03T02:31:34.878Z,0
2017-01-03T02:32:20.008Z,0
2017-01-03T02:33:19.993Z,0
2017-01-03T02:34:20.110Z,0
2017-01-03T02:35:20.023Z,0
2017-01-03T02:37:34.972Z,0
2017-01-03T02:38:20.071Z,0
2017-01-03T02:39:20.083Z,0
2017-01-03T02:40:20.106Z,0
2017-01-03T02:41:20.114Z,0
2017-01-03T02:42:20.134Z,0
2017-01-03T02:43:20.146Z,0
2017-01-03T02:44:20.174Z,0
2017-01-03T02:45:20.184Z,0
2017-01-03T02:46:35.112Z,0
2017-01-03T02:47:20.597Z,0
2017-01-03T02:48:20.225Z,0
2017-01-03T02:49:20.240Z,0
2017-01-03T02:50:20.264Z,0
2017-01-03T02:51:20.273Z,0
2017-01-03T02:52:20.284Z,0
2017-01-03T02:53:20.306Z,0
2017-01-03T02:54:20.320Z,0
2017-01-03T02:55:20.332Z,0
2017-01-03T02:56:20.349Z,0
2017-01-03T02:57:35.284Z,0
2017-01-03T02:58:20.384Z,0
2017-01-03T02:59:35.312Z,0
2017-01-03T03:00:20.428Z,0
2017-01-03T03:01:20.425Z,0
2017-01-03T03:02:20.441Z,0
2017-01-03T03:03:20.455Z,0
2017-01-03T03:04:20.473Z,0
2017-01-03T03:05:20.488Z,0
2017-01-03T03:06:20.505Z,0
2017-01-03T03:07:20.522Z,0
2017-01-03T03:08:20.537Z,0
2017-01-03T03:09:20.547Z,0
2017-01-03T03:10:35.482Z,0
2017-01-03T03:11:20.583Z,0
2017-01-03T03:12:20.611Z,0
2017-01-03T03:13:20.611Z,0
2017-01-03T03:14:35.546Z,0
2017-01-03T03:16:20.660Z,0
2017-01-03T03:17:20.675Z,0
2017-01-03T03:18:35.608Z,0
2017-01-03T03:19:20.705Z,0
2017-01-03T03:20:20.722Z,0
2017-01-03T03:21:20.737Z,0
2017-01-03T03:22:20.754Z,0
2017-01-03T03:23:20.768Z,0
2017-01-03T03:24:20.821Z,0
2017-01-03T03:25:20.798Z,0
2017-01-03T03:26:35.737Z,0
2017-01-03T03:27:20.832Z,0
2017-01-03T03:28:20.849Z,0
2017-01-03T03:30:20.879Z,0
2017-01-03T03:31:20.893Z,0
2017-01-03T03:32:20.909Z,0
2017-01-03T03:33:20.925Z,0
2017-01-03T03:34:35.858Z,0
2017-01-03T03:35:20.956Z,0
2017-01-03T03:36:20.974Z,0
2017-01-03T03:37:20.989Z,0
2017-01-03T03:38:21.000Z,0
2017-01-03T03:39:21.021Z,0
2017-01-03T03:40:21.036Z,0
2017-01-03T03:41:21.048Z,0
2017-01-03T03:42:21.066Z,0
2017-01-03T03:43:21.079Z,0
2017-01-03T03:44:21.097Z,0
2017-01-03T03:47:21.144Z,0
2017-01-03T03:49:21.179Z,0
2017-01-03T03:50:36.110Z,0
2017-01-03T03:51:21.205Z,0
2017-01-03T03:52:21.219Z,0
2017-01-03T03:53:21.236Z,0
2017-01-03T03:54:36.172Z,0
2017-01-03T03:55:21.269Z,0
2017-01-03T03:56:36.201Z,0
2017-01-03T03:57:21.303Z,0
2017-01-03T03:58:21.320Z,0
2017-01-03T03:59:21.334Z,0
2017-01-03T04:00:21.349Z,0
2017-01-03T04:01:21.365Z,0
2017-01-03T04:02:36.295Z,0
2017-01-03T04:03:21.391Z,0
2017-01-03T04:04:21.413Z,0
2017-01-03T04:05:21.427Z,0
2017-01-03T04:06:36.358Z,0
2017-01-03T04:07:21.455Z,0
2017-01-03T04:08:21.472Z,0
2017-01-03T04:09:21.486Z,0
2017-01-03T04:10:21.505Z,0
2017-01-03T04:11:21.905Z,0
2017-01-03T04:12:21.531Z,0
2017-01-03T04:13:21.552Z,0
2017-01-03T04:14:21.604Z,0
2017-01-03T04:15:21.580Z,0
2017-01-03T04:16:21.622Z,0
2017-01-03T04:17:21.614Z,0
2017-01-03T04:18:36.577Z,0
2017-01-03T04:19:21.646Z,0
2017-01-03T04:20:21.660Z,0
2017-01-03T04:21:36.596Z,0
2017-01-03T04:22:21.693Z,0
2017-01-03T04:23:21.708Z,0
2017-01-03T04:24:21.721Z,0
2017-01-03T04:25:22.122Z,0
2017-01-03T04:26:21.754Z,0
2017-01-03T04:27:21.767Z,0
2017-01-03T04:28:21.784Z,0
2017-01-03T04:29:21.800Z,0
2017-01-03T04:30:21.820Z,0
2017-01-03T04:33:21.865Z,0
2017-01-03T04:34:21.878Z,0
2017-01-03T04:36:21.909Z,0
2017-01-03T04:37:21.923Z,0
2017-01-03T04:38:21.940Z,0
2017-01-03T04:39:21.957Z,0
2017-01-03T04:40:22.361Z,0
2017-01-03T04:41:21.989Z,0
2017-01-03T04:42:22.003Z,0
2017-01-03T04:43:22.018Z,0
2017-01-03T04:44:22.064Z,0
2017-01-03T04:45:22.052Z,0
2017-01-03T04:48:37.318Z,0
2017-01-03T04:49:22.114Z,0
2017-01-03T04:50:22.130Z,0
2017-01-03T04:51:22.147Z,0
2017-01-03T04:52:22.159Z,0
2017-01-03T04:53:37.094Z,0
2017-01-03T04:54:22.189Z,0
2017-01-03T04:55:22.207Z,0
2017-01-03T04:56:22.222Z,0
2017-01-03T04:57:22.235Z,0
2017-01-03T04:58:22.250Z,0
2017-01-03T04:59:22.267Z,0
2017-01-03T05:00:22.283Z,0
2017-01-03T05:01:22.303Z,0
2017-01-03T05:02:22.314Z,0
2017-01-03T05:03:22.334Z,0
2017-01-03T05:04:22.381Z,0
2017-01-03T05:05:22.365Z,0
2017-01-03T05:06:22.381Z,0
2017-01-03T05:07:22.393Z,0
2017-01-03T05:08:22.413Z,0
2017-01-03T05:09:37.343Z,0
2017-01-03T05:10:22.443Z,0
2017-01-03T05:11:22.456Z,0
2017-01-03T05:12:22.474Z,0
2017-01-03T05:13:22.492Z,0
2017-01-03T05:14:22.505Z,0
2017-01-03T05:15:22.518Z,0
2017-01-03T05:16:22.537Z,0
2017-01-03T05:17:22.558Z,0
2017-01-03T05:18:22.568Z,0
2017-01-03T05:19:22.580Z,0
2017-01-03T05:21:22.615Z,0
2017-01-03T05:22:22.630Z,0
2017-01-03T05:23:22.644Z,0
2017-01-03T05:24:22.659Z,0
2017-01-03T05:25:37.594Z,0
2017-01-03T05:26:22.690Z,0
2017-01-03T05:27:22.709Z,0
2017-01-03T05:28:22.775Z,0
2017-01-03T05:29:22.766Z,0
2017-01-03T05:30:37.673Z,0
2017-01-03T05:31:37.687Z,0
2017-01-03T05:32:22.791Z,0
2017-01-03T05:33:22.801Z,0
2017-01-03T05:35:22.832Z,0
2017-01-03T05:36:22.846Z,0
2017-01-03T05:37:22.867Z,0
2017-01-03T05:38:22.884Z,0
2017-01-03T05:39:22.899Z,0
2017-01-03T05:40:22.912Z,0
2017-01-03T05:41:37.844Z,0
2017-01-03T05:42:22.945Z,0
2017-01-03T05:43:22.958Z,0
2017-01-03T05:44:22.976Z,0
2017-01-03T05:45:22.993Z,0
2017-01-03T05:46:23.015Z,0
2017-01-03T05:47:23.021Z,0
2017-01-03T05:48:37.955Z,0
2017-01-03T05:49:23.056Z,0
2017-01-03T05:50:23.073Z,0
2017-01-03T05:51:38.003Z,0
2017-01-03T05:52:38.019Z,0
2017-01-03T05:53:23.121Z,0
2017-01-03T05:54:23.135Z,0
2017-01-03T05:55:23.147Z,0
2017-01-03T05:56:38.086Z,0
2017-01-03T05:57:23.180Z,0
2017-01-03T05:58:23.203Z,0
2017-01-03T05:59:23.213Z,0
2017-01-03T06:00:23.232Z,0
2017-01-03T06:01:23.248Z,0
2017-01-03T06:02:23.259Z,0
2017-01-03T06:03:38.193Z,0
2017-01-03T06:04:23.294Z,0
2017-01-03T06:05:23.304Z,0
2017-01-03T06:06:23.323Z,0
2017-01-03T06:08:23.358Z,0
2017-01-03T06:10:23.774Z,0
2017-01-03T06:11:23.406Z,0
2017-01-03T06:12:23.720Z,0
2017-01-03T06:13:23.436Z,0
2017-01-03T06:14:23.451Z,0
2017-01-03T06:15:23.468Z,0
2017-01-03T06:16:38.402Z,0
2017-01-03T06:17:23.517Z,0
2017-01-03T06:18:23.514Z,0
2017-01-03T06:19:23.531Z,0
2017-01-03T06:20:23.545Z,0
2017-01-03T06:21:38.484Z,0
2017-01-03T06:22:23.578Z,0
2017-01-03T06:23:38.510Z,0
2017-01-03T06:24:23.643Z,0
2017-01-03T06:25:23.635Z,0
2017-01-03T06:26:23.641Z,0
2017-01-03T06:27:23.657Z,0
2017-01-03T06:28:38.593Z,0
2017-01-03T06:29:23.689Z,0
2017-01-03T06:30:23.705Z,0
2017-01-03T06:31:23.721Z,0
2017-01-03T06:32:23.738Z,0
2017-01-03T06:33:23.977Z,0
2017-01-03T06:34:38.687Z,0
2017-01-03T06:35:38.702Z,0
2017-01-03T06:36:38.717Z,0
2017-01-03T06:37:23.816Z,0
2017-01-03T06:38:23.831Z,0
2017-01-03T06:41:23.880Z,0
2017-01-03T06:42:23.898Z,0
2017-01-03T06:43:23.913Z,0
2017-01-03T06:44:38.847Z,0
2017-01-03T06:45:23.948Z,0
2017-01-03T06:46:23.960Z,0
2017-01-03T06:47:23.979Z,0
2017-01-03T06:48:23.993Z,0
2017-01-03T06:49:24.009Z,0
2017-01-03T06:50:24.030Z,0
2017-01-03T06:51:24.071Z,0
2017-01-03T06:52:24.055Z,0
2017-01-03T06:53:24.071Z,4
2017-01-03T06:54:24.091Z,4
2017-01-03T06:55:39.023Z,4
2017-01-03T06:56:24.123Z,0
2017-01-03T06:57:24.134Z,4
2017-01-03T06:58:24.151Z,4
2017-01-03T06:59:24.169Z,4
2017-01-03T07:00:39.100Z,4
2017-01-03T07:01:24.200Z,4
2017-01-03T07:02:24.217Z,4
2017-01-03T07:03:24.235Z,4
2017-01-03T07:04:24.258Z,8
2017-01-03T07:05:24.268Z,8
2017-01-03T07:06:39.197Z,4
2017-01-03T07:07:39.213Z,8
2017-01-03T07:08:24.311Z,8
2017-01-03T07:09:24.328Z,8
2017-01-03T07:10:24.349Z,12
2017-01-03T07:11:24.358Z,12
2017-01-03T07:12:24.377Z,12
2017-01-03T07:13:24.395Z,12
2017-01-03T07:15:24.429Z,16
2017-01-03T07:16:39.362Z,20
2017-01-03T07:17:24.459Z,20
2017-01-03T07:18:24.473Z,20
2017-01-03T07:19:24.486Z,24
2017-01-03T07:20:24.518Z,24
2017-01-03T07:21:24.518Z,24
2017-01-03T07:23:24.549Z,32
2017-01-03T07:24:24.575Z,28
2017-01-03T07:25:24.583Z,36
2017-01-03T07:29:24.698Z,52
2017-01-03T07:30:24.669Z,56
2017-01-03T07:31:39.599Z,56
2017-01-03T07:32:24.698Z,56
2017-01-03T07:33:24.712Z,60
2017-01-03T07:34:24.731Z,60
2017-01-03T07:35:24.746Z,64
2017-01-03T07:36:39.682Z,80
2017-01-03T07:37:24.782Z,84
2017-01-03T07:38:24.797Z,96
2017-01-03T07:39:24.810Z,96
2017-01-03T07:40:24.825Z,92
2017-01-03T07:41:39.761Z,88
2017-01-03T07:42:39.781Z,84
2017-01-03T07:44:24.891Z,96
2017-01-03T07:45:24.908Z,120
2017-01-03T07:46:24.925Z,124
2017-01-03T07:47:24.939Z,120
2017-01-03T07:48:24.956Z,128
2017-01-03T07:49:24.972Z,128
2017-01-03T07:50:24.989Z,140
2017-01-03T07:51:25.004Z,208
2017-01-03T07:52:25.025Z,212
2017-01-03T07:53:25.036Z,176
2017-01-03T07:54:25.052Z,172
2017-01-03T07:56:25.083Z,172
2017-01-03T07:57:40.019Z,180
2017-01-03T07:58:40.035Z,176
2017-01-03T07:59:40.050Z,200
2017-01-03T08:00:25.148Z,240
2017-01-03T08:01:25.169Z,236
2017-01-03T08:02:25.182Z,252
2017-01-03T08:03:40.112Z,240
2017-01-03T08:04:25.217Z,224
2017-01-03T08:05:25.234Z,244
2017-01-03T08:06:25.245Z,232
2017-01-03T08:07:25.258Z,224
2017-01-03T08:08:25.283Z,252
2017-01-03T08:09:40.211Z,260
2017-01-03T08:10:25.310Z,272
2017-01-03T08:11:40.243Z,256
2017-01-03T08:12:25.346Z,260
2017-01-03T08:13:25.357Z,280
2017-01-03T08:14:40.295Z,280
2017-01-03T08:15:25.391Z,288
2017-01-03T08:16:25.407Z,304
2017-01-03T08:17:25.425Z,324
2017-01-03T08:18:25.438Z,340
2017-01-03T08:19:40.375Z,344
2017-01-03T08:20:25.486Z,340
2017-01-03T08:21:25.485Z,340
2017-01-03T08:22:25.552Z,348
2017-01-03T08:23:25.671Z,332
2017-01-03T08:24:25.538Z,392
2017-01-03T08:25:40.471Z,392
2017-01-03T08:26:25.569Z,444
2017-01-03T08:28:25.601Z,364
2017-01-03T08:29:40.536Z,392
2017-01-03T08:30:40.553Z,364
2017-01-03T08:31:25.650Z,388
2017-01-03T08:32:25.664Z,436
2017-01-03T08:33:25.689Z,436
2017-01-03T08:34:25.700Z,496
2017-01-03T08:35:40.632Z,540
2017-01-03T08:36:25.737Z,536
2017-01-03T08:37:25.748Z,516
2017-01-03T08:38:25.765Z,496
2017-01-03T08:39:25.777Z,452
2017-01-03T08:40:25.794Z,428
2017-01-03T08:41:25.813Z,448
2017-01-03T08:42:25.828Z,432
2017-01-03T08:43:25.846Z,456
2017-01-03T08:44:25.858Z,480
2017-01-03T08:45:25.897Z,448
2017-01-03T08:47:40.826Z,572
2017-01-03T08:48:25.939Z,576
2017-01-03T08:49:25.943Z,532
2017-01-03T08:50:25.959Z,688
2017-01-03T08:51:40.890Z,644
2017-01-03T08:52:25.989Z,580
2017-01-03T08:53:26.011Z,564
2017-01-03T08:54:26.055Z,544
2017-01-03T08:56:26.056Z,484
2017-01-03T08:57:26.072Z,496
2017-01-03T08:58:41.006Z,428
2017-01-03T08:59:26.107Z,444
2017-01-03T09:00:26.125Z,464
2017-01-03T09:01:26.136Z,424
2017-01-03T09:02:26.182Z,408
2017-01-03T09:03:26.170Z,432
2017-01-03T09:04:26.187Z,428
2017-01-03T09:05:26.203Z,408
2017-01-03T09:06:41.140Z,444
2017-01-03T09:07:26.240Z,444
2017-01-03T09:08:26.250Z,428
2017-01-03T09:09:26.267Z,452
2017-01-03T09:10:26.282Z,484
2017-01-03T09:11:26.301Z,540
2017-01-03T09:12:26.318Z,696
2017-01-03T09:13:26.329Z,540
2017-01-03T09:14:26.348Z,660
2017-01-03T09:15:26.365Z,664
2017-01-03T09:16:26.379Z,776
2017-01-03T09:17:41.315Z,632
2017-01-03T09:18:26.413Z,596
2017-01-03T09:19:26.816Z,596
2017-01-03T09:20:26.445Z,544
2017-01-03T09:21:26.462Z,604
2017-01-03T09:22:26.479Z,600
2017-01-03T09:23:26.494Z,736
2017-01-03T09:24:26.512Z,792
2017-01-03T09:25:26.526Z,636
2017-01-03T09:26:26.545Z,660
2017-01-03T09:27:26.559Z,676
2017-01-03T09:28:41.493Z,656
2017-01-03T09:29:26.590Z,584
2017-01-03T09:30:26.610Z,744
2017-01-03T09:31:26.624Z,624
2017-01-03T09:32:26.639Z,620
2017-01-03T09:34:26.672Z,708
2017-01-03T09:36:26.703Z,1236
2017-01-03T09:37:26.722Z,1176
2017-01-03T09:38:41.658Z,884
2017-01-03T09:40:26.771Z,948
2017-01-03T09:41:26.783Z,924
2017-01-03T09:42:26.802Z,1016
2017-01-03T09:43:26.819Z,1020
2017-01-03T09:44:41.753Z,1064
2017-01-03T09:45:26.879Z,1024
2017-01-03T09:46:26.868Z,1072
2017-01-03T09:47:26.983Z,1168
2017-01-03T09:48:26.903Z,916
2017-01-03T09:50:26.933Z,820
2017-01-03T09:51:26.951Z,800
2017-01-03T09:52:26.966Z,688
2017-01-03T09:53:26.982Z,688
2017-01-03T09:54:41.916Z,700
2017-01-03T09:55:27.016Z,656
2017-01-03T09:56:27.030Z,668
2017-01-03T09:57:27.047Z,664
2017-01-03T09:58:27.063Z,644
2017-01-03T09:59:27.081Z,680
2017-01-03T10:00:27.099Z,664
2017-01-03T10:01:27.113Z,684
2017-01-03T10:02:27.128Z,640
2017-01-03T10:03:27.144Z,584
2017-01-03T10:04:42.081Z,708
2017-01-03T10:05:27.183Z,700
2017-01-03T10:06:27.196Z,732
2017-01-03T10:07:42.128Z,764
2017-01-03T10:08:27.228Z,728
2017-01-03T10:09:27.250Z,672
2017-01-03T10:10:42.179Z,816
2017-01-03T10:11:27.278Z,720
2017-01-03T10:12:27.344Z,812
2017-01-03T10:13:27.311Z,800
2017-01-03T10:14:27.326Z,836
2017-01-03T10:15:27.343Z,796
2017-01-03T10:16:27.361Z,760
2017-01-03T10:17:27.377Z,740
2017-01-03T10:18:27.394Z,700
2017-01-03T10:19:27.408Z,740
2017-01-03T10:20:27.431Z,724
2017-01-03T10:21:27.441Z,840
2017-01-03T10:22:27.460Z,1020
2017-01-03T10:23:27.478Z,1020
2017-01-03T10:24:27.492Z,1084
2017-01-03T10:25:42.433Z,1064
2017-01-03T10:26:42.441Z,904
2017-01-03T10:27:27.539Z,812
2017-01-03T10:28:27.561Z,732
2017-01-03T10:29:27.585Z,652
2017-01-03T10:30:27.596Z,820
2017-01-03T10:31:42.527Z,836
2017-01-03T10:32:27.625Z,904
2017-01-03T10:33:27.646Z,988
2017-01-03T10:34:27.660Z,888
2017-01-03T10:35:42.596Z,984
2017-01-03T10:36:27.692Z,864
2017-01-03T10:38:27.726Z,944
2017-01-03T10:39:27.743Z,872
2017-01-03T10:40:27.756Z,808
2017-01-03T10:41:42.693Z,928
2017-01-03T10:42:27.791Z,960
2017-01-03T10:43:27.809Z,840
2017-01-03T10:44:27.827Z,932
2017-01-03T10:45:27.845Z,1208
2017-01-03T10:46:27.867Z,1100
2017-01-03T10:47:27.972Z,1148
2017-01-03T10:48:42.809Z,1180
2017-01-03T10:49:27.920Z,1196
2017-01-03T10:50:27.923Z,1452
2017-01-03T10:51:42.859Z,1132
2017-01-03T10:52:27.961Z,1136
2017-01-03T10:53:27.978Z,980
2017-01-03T10:55:28.010Z,1028
2017-01-03T10:56:28.024Z,1008
2017-01-03T10:57:28.042Z,1068
2017-01-03T10:58:28.058Z,1028
2017-01-03T10:59:28.078Z,1152
2017-01-03T11:00:28.092Z,1024
2017-01-03T11:01:28.109Z,1228
2017-01-03T11:02:28.132Z,1072
2017-01-03T11:03:43.062Z,1240
2017-01-03T11:04:43.077Z,1060
2017-01-03T11:05:28.177Z,948
2017-01-03T11:07:28.210Z,1000
2017-01-03T11:08:43.171Z,1140
2017-01-03T11:09:28.244Z,1064
2017-01-03T11:10:28.291Z,1016
2017-01-03T11:11:28.281Z,956
2017-01-03T11:12:28.294Z,912
2017-01-03T11:13:43.231Z,924
2017-01-03T11:14:28.330Z,904
2017-01-03T11:15:28.348Z,820
2017-01-03T11:16:28.361Z,780
2017-01-03T11:17:28.380Z,780
2017-01-03T11:18:28.399Z,800
2017-01-03T11:19:43.331Z,768
2017-01-03T11:20:28.431Z,744
2017-01-03T11:21:28.456Z,772
2017-01-03T11:22:28.465Z,832
2017-01-03T11:23:28.490Z,832
2017-01-03T11:25:28.518Z,996
2017-01-03T11:26:28.535Z,1196
2017-01-03T11:27:28.552Z,1192
2017-01-03T11:28:28.563Z,1264
2017-01-03T11:29:43.502Z,1052
2017-01-03T11:30:43.523Z,1060
2017-01-03T11:31:28.617Z,1108
2017-01-03T11:32:28.636Z,1052
2017-01-03T11:33:43.570Z,956
2017-01-03T11:34:28.666Z,964
2017-01-03T11:35:28.707Z,1060
2017-01-03T11:36:43.619Z,1192
2017-01-03T11:37:28.719Z,1140
2017-01-03T11:38:28.736Z,1016
2017-01-03T11:39:43.670Z,1212
2017-01-03T11:41:43.704Z,956
2017-01-03T11:42:28.804Z,956
2017-01-03T11:43:28.821Z,988
2017-01-03T11:44:28.837Z,1060
2017-01-03T11:45:43.771Z,1088
2017-01-03T11:46:28.875Z,988
2017-01-03T11:47:28.886Z,932
2017-01-03T11:48:28.911Z,984
2017-01-03T11:49:28.919Z,1024
2017-01-03T11:50:28.939Z,1280
2017-01-03T11:51:28.955Z,1344
2017-01-03T11:52:28.973Z,1400
2017-01-03T11:53:28.989Z,1352
2017-01-03T11:54:29.157Z,1308
2017-01-03T11:55:29.024Z,1248
2017-01-03T11:56:29.043Z,1180
2017-01-03T11:57:29.059Z,1272
2017-01-03T11:58:29.075Z,1256
2017-01-03T11:59:29.092Z,1444
2017-01-03T12:00:29.112Z,1692
2017-01-03T12:01:44.045Z,1928
2017-01-03T12:02:29.144Z,1896
2017-01-03T12:03:29.162Z,1844
2017-01-03T12:04:29.178Z,1972
2017-01-03T12:05:29.193Z,1952
2017-01-03T12:06:29.212Z,1740
2017-01-03T12:07:29.230Z,1976
2017-01-03T12:08:29.248Z,1700
2017-01-03T12:09:29.263Z,1420
2017-01-03T12:10:29.280Z,1488
2017-01-03T12:11:44.215Z,1724
2017-01-03T12:12:29.349Z,1908
2017-01-03T12:13:29.335Z,1820
2017-01-03T12:14:29.350Z,1640
2017-01-03T12:15:29.366Z,1496
2017-01-03T12:16:44.303Z,1424
2017-01-03T12:18:29.417Z,1404
2017-01-03T12:19:29.432Z,1384
2017-01-03T12:20:44.370Z,1184
2017-01-03T12:21:29.475Z,1020
2017-01-03T12:22:29.486Z,1128
2017-01-03T12:23:44.419Z,1072
2017-01-03T12:24:44.441Z,996
2017-01-03T12:25:29.534Z,1044
2017-01-03T12:26:29.556Z,916
2017-01-03T12:27:29.575Z,880
2017-01-03T12:28:29.588Z,804
2017-01-03T12:29:44.520Z,792
2017-01-03T12:30:29.624Z,880
2017-01-03T12:31:29.644Z,908
2017-01-03T12:32:29.659Z,932
2017-01-03T12:33:29.676Z,824
2017-01-03T12:34:29.692Z,784
2017-01-03T12:35:29.705Z,756
2017-01-03T12:36:29.725Z,792
2017-01-03T12:37:29.742Z,760
2017-01-03T12:38:44.677Z,760
2017-01-03T12:39:29.778Z,772
2017-01-03T12:40:29.791Z,768
2017-01-03T12:41:29.809Z,708
2017-01-03T12:42:44.743Z,736
2017-01-03T12:44:44.778Z,860
2017-01-03T12:45:29.881Z,784
2017-01-03T12:46:29.893Z,716
2017-01-03T12:47:29.916Z,728
2017-01-03T12:48:44.850Z,680
2017-01-03T12:49:29.945Z,764
2017-01-03T12:50:29.963Z,716
2017-01-03T12:51:29.981Z,712
2017-01-03T12:52:30.002Z,704
2017-01-03T12:53:30.014Z,592
2017-01-03T12:54:44.948Z,680
2017-01-03T12:55:44.964Z,624
2017-01-03T12:56:30.065Z,644
2017-01-03T12:58:30.099Z,632
2017-01-03T12:59:30.127Z,604
2017-01-03T13:00:30.133Z,624
2017-01-03T13:01:30.149Z,600
2017-01-03T13:02:30.163Z,488
2017-01-03T13:03:30.182Z,460
2017-01-03T13:04:45.123Z,532
2017-01-03T13:05:30.221Z,592
2017-01-03T13:06:30.239Z,652
2017-01-03T13:07:30.249Z,664
2017-01-03T13:08:30.270Z,492
2017-01-03T13:09:30.284Z,592
2017-01-03T13:10:30.297Z,576
2017-01-03T13:11:30.316Z,644
2017-01-03T13:13:30.350Z,644
2017-01-03T13:14:30.375Z,804
2017-01-03T13:15:30.385Z,780
2017-01-03T13:17:45.331Z,584
2017-01-03T13:18:30.434Z,800
2017-01-03T13:19:30.452Z,744
2017-01-03T13:20:45.383Z,644
2017-01-03T13:21:30.484Z,720
2017-01-03T13:22:30.501Z,684
2017-01-03T13:23:45.543Z,748
2017-01-03T13:24:30.532Z,784
2017-01-03T13:25:30.554Z,756
2017-01-03T13:26:30.570Z,784
2017-01-03T13:27:45.500Z,720
2017-01-03T13:28:30.654Z,728
2017-01-03T13:29:30.616Z,652
2017-01-03T13:31:30.650Z,556
2017-01-03T13:32:30.672Z,536
2017-01-03T13:34:30.702Z,488
2017-01-03T13:35:30.718Z,464
2017-01-03T13:36:45.657Z,444
2017-01-03T13:37:30.750Z,440
2017-01-03T13:38:30.774Z,484
2017-01-03T13:39:30.785Z,432
2017-01-03T13:40:30.801Z,448
2017-01-03T13:41:30.817Z,460
2017-01-03T13:42:30.863Z,448
2017-01-03T13:43:30.851Z,472
2017-01-03T13:44:30.904Z,464
2017-01-03T13:46:30.907Z,524
2017-01-03T13:47:45.833Z,476
2017-01-03T13:48:30.939Z,492
2017-01-03T13:49:30.955Z,468
2017-01-03T13:50:30.968Z,496
2017-01-03T13:51:45.904Z,496
2017-01-03T13:52:31.003Z,496
2017-01-03T13:53:31.020Z,460
2017-01-03T13:54:31.034Z,412
2017-01-03T13:55:31.051Z,408
2017-01-03T13:56:31.072Z,360
2017-01-03T13:57:31.094Z,404
2017-01-03T13:58:31.108Z,396
2017-01-03T13:59:31.116Z,408
2017-01-03T14:00:31.133Z,420
2017-01-03T14:01:31.151Z,340
2017-01-03T14:02:31.170Z,408
2017-01-03T14:03:31.191Z,436
2017-01-03T14:04:31.203Z,376
2017-01-03T14:05:31.219Z,436
2017-01-03T14:06:31.234Z,396
2017-01-03T14:07:31.256Z,384
2017-01-03T14:08:31.269Z,308
2017-01-03T14:09:31.287Z,320
2017-01-03T14:10:31.307Z,416
2017-01-03T14:11:31.317Z,444
2017-01-03T14:12:46.258Z,364
2017-01-03T14:13:46.270Z,320
2017-01-03T14:14:31.400Z,328
2017-01-03T14:15:31.393Z,332
2017-01-03T14:16:31.408Z,364
2017-01-03T14:17:31.417Z,356
2017-01-03T14:18:46.356Z,364
2017-01-03T14:19:46.371Z,276
2017-01-03T14:20:31.471Z,304
2017-01-03T14:21:31.487Z,316
2017-01-03T14:22:31.502Z,284
2017-01-03T14:23:46.436Z,368
2017-01-03T14:24:31.533Z,328
2017-01-03T14:25:31.555Z,308
2017-01-03T14:26:31.567Z,284
2017-01-03T14:27:31.620Z,248
2017-01-03T14:28:46.521Z,256
2017-01-03T14:29:31.620Z,296
2017-01-03T14:30:31.635Z,208
2017-01-03T14:31:31.661Z,224
2017-01-03T14:32:31.668Z,236
2017-01-03T14:33:31.685Z,228
2017-01-03T14:34:46.620Z,200
2017-01-03T14:35:31.748Z,160
2017-01-03T14:36:31.743Z,164
2017-01-03T14:37:31.754Z,168
2017-01-03T14:38:31.771Z,168
2017-01-03T14:39:46.701Z,160
2017-01-03T14:40:31.803Z,160
2017-01-03T14:41:31.819Z,132
2017-01-03T14:42:31.835Z,124
2017-01-03T14:43:46.772Z,116
2017-01-03T14:44:31.867Z,108
2017-01-03T14:45:31.891Z,84
2017-01-03T14:46:46.820Z,68
2017-01-03T14:49:46.874Z,60
2017-01-03T14:51:31.989Z,64
2017-01-03T14:52:32.005Z,56
2017-01-03T14:53:32.038Z,52
2017-01-03T14:54:32.037Z,52
2017-01-03T14:55:46.970Z,40
2017-01-03T14:56:32.076Z,40
2017-01-03T14:57:32.086Z,40
2017-01-03T14:58:47.023Z,36
2017-01-03T14:59:32.117Z,36
2017-01-03T15:00:47.054Z,32
2017-01-03T15:01:32.203Z,32
2017-01-03T15:02:32.198Z,28
2017-01-03T15:04:32.354Z,20
2017-01-03T15:07:32.253Z,16
2017-01-03T15:08:32.267Z,16
2017-01-03T15:09:32.284Z,12